sensor_id;sensor_type;location;lat;lon;timestamp;pressure;altitude;pressure_sealevel;temperature;humidity
10988;BME280;5547;42.672;23.230;2023-08-07T00:02:16;92800.22;;;13.25;100.00
10988;BME280;5547;42.672;23.230;2023-08-07T00:05:16;92783.38;;;13.16;100.00
10988;BME280;5547;42.672;23.230;2023-08-07T00:08:17;92794.97;;;13.35;100.00
10988;BME280;5547;42.672;23.230;2023-08-07T00:11:17;92790.94;;;13.30;100.00
10988;BME280;5547;42.672;23.230;2023-08-07T00:14:18;92736.91;;;12.91;100.00
10988;BME280;5547;42.672;23.230;2023-08-07T00:17:18;92725.22;;;12.76;100.00
10988;BME280;5547;42.672;23.230;2023-08-07T00:20:18;92769.16;;;13.19;100.00
10988;BME280;5547;42.672;23.230;2023-08-07T00:23:19;92786.22;;;13.34;100.00
10988;BME280;5547;42.672;23.230;2023-08-07T00:26:19;92768.16;;;13.25;100.00
10988;BME280;5547;42.672;23.230;2023-08-07T00:29:20;92750.94;;;13.04;100.00
10988;BME280;5547;42.672;23.230;2023-08-07T00:32:20;92789.09;;;13.27;100.00
10988;BME280;5547;42.672;23.230;2023-08-07T00:35:20;92798.63;;;13.28;100.00
10988;BME280;5547;42.672;23.230;2023-08-07T00:38:21;92791.38;;;13.29;100.00
10988;BME280;5547;42.672;23.230;2023-08-07T00:41:21;92777.22;;;13.06;100.00
10988;BME280;5547;42.672;23.230;2023-08-07T00:44:22;92776.09;;;12.94;100.00
10988;BME280;5547;42.672;23.230;2023-08-07T00:47:24;92749.88;;;12.67;100.00
10988;BME280;5547;42.672;23.230;2023-08-07T00:50:25;92795.94;;;12.93;100.00
10988;BME280;5547;42.672;23.230;2023-08-07T00:53:26;92793.53;;;12.73;100.00
10988;BME280;5547;42.672;23.230;2023-08-07T00:56:26;92809.31;;;12.68;100.00
10988;BME280;5547;42.672;23.230;2023-08-07T00:59:27;92793.66;;;12.44;100.00
10988;BME280;5547;42.672;23.230;2023-08-07T01:02:28;92749.63;;;12.01;100.00
10988;BME280;5547;42.672;23.230;2023-08-07T01:05:28;92801.78;;;12.28;100.00
10988;BME280;5547;42.672;23.230;2023-08-07T01:08:29;92819.28;;;12.42;100.00
10988;BME280;5547;42.672;23.230;2023-08-07T01:14:59;92831.00;;;12.31;100.00
10988;BME280;5547;42.672;23.230;2023-08-07T01:18:02;92783.41;;;11.91;100.00
10988;BME280;5547;42.672;23.230;2023-08-07T01:21:04;92816.28;;;12.14;100.00
10988;BME280;5547;42.672;23.230;2023-08-07T01:24:05;92820.56;;;12.11;100.00
10988;BME280;5547;42.672;23.230;2023-08-07T01:33:31;92833.22;;;12.07;100.00
10988;BME280;5547;42.672;23.230;2023-08-07T01:36:33;92815.06;;;11.89;100.00
10988;BME280;5547;42.672;23.230;2023-08-07T01:39:34;92813.75;;;11.81;100.00
10988;BME280;5547;42.672;23.230;2023-08-07T01:42:36;92822.50;;;11.82;100.00
10988;BME280;5547;42.672;23.230;2023-08-07T01:45:37;92817.47;;;11.71;100.00
10988;BME280;5547;42.672;23.230;2023-08-07T01:48:37;92831.97;;;11.83;100.00
10988;BME280;5547;42.672;23.230;2023-08-07T01:51:37;92828.41;;;11.89;100.00
10988;BME280;5547;42.672;23.230;2023-08-07T01:54:38;92784.16;;;11.50;100.00
10988;BME280;5547;42.672;23.230;2023-08-07T01:57:38;92825.06;;;11.85;100.00
10988;BME280;5547;42.672;23.230;2023-08-07T02:00:39;92831.88;;;11.86;100.00
10988;BME280;5547;42.672;23.230;2023-08-07T02:03:40;92831.38;;;11.91;100.00
10988;BME280;5547;42.672;23.230;2023-08-07T02:06:40;92837.16;;;11.73;100.00
10988;BME280;5547;42.672;23.230;2023-08-07T02:09:40;92837.63;;;11.72;100.00
10988;BME280;5547;42.672;23.230;2023-08-07T02:12:41;92828.25;;;11.80;100.00
10988;BME280;5547;42.672;23.230;2023-08-07T02:15:41;92805.53;;;11.63;100.00
10988;BME280;5547;42.672;23.230;2023-08-07T02:18:42;92854.50;;;11.94;100.00
10988;BME280;5547;42.672;23.230;2023-08-07T02:21:42;92850.78;;;11.92;100.00
10988;BME280;5547;42.672;23.230;2023-08-07T02:24:42;92853.88;;;11.90;100.00
10988;BME280;5547;42.672;23.230;2023-08-07T02:27:43;92865.84;;;11.98;100.00
10988;BME280;5547;42.672;23.230;2023-08-07T02:30:47;92828.84;;;11.71;100.00
10988;BME280;5547;42.672;23.230;2023-08-07T02:33:48;92841.81;;;11.86;100.00
10988;BME280;5547;42.672;23.230;2023-08-07T02:36:49;92862.22;;;12.05;100.00
10988;BME280;5547;42.672;23.230;2023-08-07T02:39:49;92843.97;;;11.91;100.00
10988;BME280;5547;42.672;23.230;2023-08-07T02:42:50;92831.75;;;11.77;100.00
10988;BME280;5547;42.672;23.230;2023-08-07T02:45:50;92800.47;;;11.52;100.00
10988;BME280;5547;42.672;23.230;2023-08-07T02:48:50;92870.22;;;11.92;100.00
10988;BME280;5547;42.672;23.230;2023-08-07T02:51:51;92801.31;;;11.49;100.00
10988;BME280;5547;42.672;23.230;2023-08-07T02:54:51;92851.63;;;11.89;100.00
10988;BME280;5547;42.672;23.230;2023-08-07T02:57:51;92827.03;;;11.68;100.00
10988;BME280;5547;42.672;23.230;2023-08-07T03:00:52;92825.22;;;11.65;100.00
10988;BME280;5547;42.672;23.230;2023-08-07T03:03:52;92875.53;;;12.05;100.00
10988;BME280;5547;42.672;23.230;2023-08-07T03:06:53;92858.78;;;11.92;100.00
10988;BME280;5547;42.672;23.230;2023-08-07T03:09:53;92879.41;;;12.04;100.00
10988;BME280;5547;42.672;23.230;2023-08-07T03:12:53;92872.44;;;11.94;100.00
10988;BME280;5547;42.672;23.230;2023-08-07T03:16:05;92886.22;;;12.05;100.00
10988;BME280;5547;42.672;23.230;2023-08-07T03:19:06;92846.16;;;11.80;100.00
10988;BME280;5547;42.672;23.230;2023-08-07T03:22:06;92865.28;;;11.91;100.00
10988;BME280;5547;42.672;23.230;2023-08-07T03:25:07;92842.78;;;11.92;100.00
10988;BME280;5547;42.672;23.230;2023-08-07T03:28:07;92888.50;;;12.32;100.00
10988;BME280;5547;42.672;23.230;2023-08-07T03:31:08;92886.38;;;12.40;100.00
10988;BME280;5547;42.672;23.230;2023-08-07T03:34:08;92889.91;;;12.37;100.00
10988;BME280;5547;42.672;23.230;2023-08-07T03:37:08;92901.31;;;12.50;100.00
10988;BME280;5547;42.672;23.230;2023-08-07T03:40:09;92915.00;;;12.52;100.00
10988;BME280;5547;42.672;23.230;2023-08-07T03:43:10;92877.19;;;12.28;100.00
10988;BME280;5547;42.672;23.230;2023-08-07T03:46:10;92911.88;;;12.41;100.00
10988;BME280;5547;42.672;23.230;2023-08-07T03:49:11;92924.25;;;12.60;100.00
10988;BME280;5547;42.672;23.230;2023-08-07T03:52:11;92900.34;;;12.44;100.00
10988;BME280;5547;42.672;23.230;2023-08-07T03:55:12;92926.06;;;12.64;100.00
10988;BME280;5547;42.672;23.230;2023-08-07T03:58:12;92910.59;;;12.58;100.00
10988;BME280;5547;42.672;23.230;2023-08-07T04:01:12;92921.16;;;12.75;100.00
10988;BME280;5547;42.672;23.230;2023-08-07T04:04:13;92950.09;;;13.02;100.00
10988;BME280;5547;42.672;23.230;2023-08-07T04:07:13;92876.66;;;12.72;100.00
10988;BME280;5547;42.672;23.230;2023-08-07T04:10:14;92921.03;;;13.17;100.00
10988;BME280;5547;42.672;23.230;2023-08-07T04:13:14;92950.19;;;13.50;100.00
10988;BME280;5547;42.672;23.230;2023-08-07T04:16:14;92957.81;;;13.73;100.00
10988;BME280;5547;42.672;23.230;2023-08-07T04:19:15;92916.31;;;13.47;100.00
10988;BME280;5547;42.672;23.230;2023-08-07T04:22:16;92947.44;;;13.75;100.00
10988;BME280;5547;42.672;23.230;2023-08-07T04:25:16;92963.50;;;13.97;100.00
10988;BME280;5547;42.672;23.230;2023-08-07T04:28:16;92946.16;;;13.67;100.00
10988;BME280;5547;42.672;23.230;2023-08-07T04:31:17;92961.13;;;13.77;100.00
10988;BME280;5547;42.672;23.230;2023-08-07T04:34:17;92943.72;;;13.73;100.00
10988;BME280;5547;42.672;23.230;2023-08-07T04:37:18;92970.25;;;14.24;100.00
10988;BME280;5547;42.672;23.230;2023-08-07T04:40:18;92947.50;;;14.73;100.00
10988;BME280;5547;42.672;23.230;2023-08-07T04:43:19;92975.97;;;14.57;100.00
10988;BME280;5547;42.672;23.230;2023-08-07T04:46:22;92949.66;;;14.34;100.00
10988;BME280;5547;42.672;23.230;2023-08-07T04:49:23;92953.97;;;14.84;100.00
10988;BME280;5547;42.672;23.230;2023-08-07T04:52:23;92978.44;;;14.74;100.00
10988;BME280;5547;42.672;23.230;2023-08-07T04:55:23;92964.03;;;14.49;100.00
10988;BME280;5547;42.672;23.230;2023-08-07T04:58:24;92981.84;;;14.74;100.00
10988;BME280;5547;42.672;23.230;2023-08-07T05:01:24;92974.59;;;14.75;100.00
10988;BME280;5547;42.672;23.230;2023-08-07T05:04:24;92975.38;;;15.25;100.00
10988;BME280;5547;42.672;23.230;2023-08-07T05:07:25;92977.47;;;15.21;100.00
10988;BME280;5547;42.672;23.230;2023-08-07T05:10:25;92968.75;;;14.98;100.00
10988;BME280;5547;42.672;23.230;2023-08-07T05:13:26;92965.63;;;15.49;100.00
10988;BME280;5547;42.672;23.230;2023-08-07T05:16:26;92964.13;;;15.39;100.00
10988;BME280;5547;42.672;23.230;2023-08-07T05:19:27;92945.38;;;14.99;100.00
10988;BME280;5547;42.672;23.230;2023-08-07T05:22:27;92910.75;;;15.04;100.00
10988;BME280;5547;42.672;23.230;2023-08-07T05:25:27;92925.22;;;15.16;100.00
10988;BME280;5547;42.672;23.230;2023-08-07T05:28:28;92935.19;;;15.25;100.00
10988;BME280;5547;42.672;23.230;2023-08-07T05:31:28;92973.66;;;15.49;100.00
10988;BME280;5547;42.672;23.230;2023-08-07T05:34:29;92942.63;;;15.11;100.00
10988;BME280;5547;42.672;23.230;2023-08-07T05:37:29;92932.66;;;15.21;100.00
10988;BME280;5547;42.672;23.230;2023-08-07T05:40:31;92949.47;;;15.22;100.00
10988;BME280;5547;42.672;23.230;2023-08-07T05:43:32;92965.19;;;15.51;100.00
10988;BME280;5547;42.672;23.230;2023-08-07T05:46:32;92925.69;;;15.33;100.00
10988;BME280;5547;42.672;23.230;2023-08-07T05:49:33;92969.81;;;15.50;100.00
10988;BME280;5547;42.672;23.230;2023-08-07T05:52:33;92966.53;;;15.55;100.00
10988;BME280;5547;42.672;23.230;2023-08-07T05:55:34;92947.47;;;15.53;100.00
10988;BME280;5547;42.672;23.230;2023-08-07T05:58:34;92950.72;;;15.39;100.00
10988;BME280;5547;42.672;23.230;2023-08-07T06:01:35;92962.13;;;16.08;100.00
10988;BME280;5547;42.672;23.230;2023-08-07T06:04:37;92971.16;;;15.55;100.00
10988;BME280;5547;42.672;23.230;2023-08-07T06:07:37;92977.66;;;16.13;100.00
10988;BME280;5547;42.672;23.230;2023-08-07T06:10:38;92972.41;;;16.18;100.00
10988;BME280;5547;42.672;23.230;2023-08-07T06:13:40;92969.28;;;16.38;100.00
10988;BME280;5547;42.672;23.230;2023-08-07T06:16:40;92917.75;;;15.88;100.00
10988;BME280;5547;42.672;23.230;2023-08-07T06:19:41;92904.44;;;15.66;100.00
10988;BME280;5547;42.672;23.230;2023-08-07T06:22:41;92975.22;;;16.43;100.00
10988;BME280;5547;42.672;23.230;2023-08-07T06:25:42;92951.22;;;16.48;100.00
10988;BME280;5547;42.672;23.230;2023-08-07T06:28:43;92933.75;;;16.62;100.00
10988;BME280;5547;42.672;23.230;2023-08-07T06:31:43;92950.94;;;16.98;100.00
10988;BME280;5547;42.672;23.230;2023-08-07T06:34:44;92972.25;;;17.11;100.00
10988;BME280;5547;42.672;23.230;2023-08-07T06:37:44;92972.13;;;17.05;100.00
10988;BME280;5547;42.672;23.230;2023-08-07T06:40:44;92949.22;;;16.86;100.00
10988;BME280;5547;42.672;23.230;2023-08-07T06:43:45;92979.88;;;17.12;100.00
10988;BME280;5547;42.672;23.230;2023-08-07T06:46:45;92985.56;;;17.38;100.00
10988;BME280;5547;42.672;23.230;2023-08-07T06:49:46;92971.25;;;17.32;100.00
10988;BME280;5547;42.672;23.230;2023-08-07T06:52:46;92966.97;;;17.26;100.00
10988;BME280;5547;42.672;23.230;2023-08-07T06:55:47;92867.31;;;16.38;100.00
10988;BME280;5547;42.672;23.230;2023-08-07T06:58:47;92979.50;;;17.29;100.00
10988;BME280;5547;42.672;23.230;2023-08-07T07:01:48;92950.09;;;17.25;100.00
10988;BME280;5547;42.672;23.230;2023-08-07T07:04:48;92992.69;;;17.51;100.00
10988;BME280;5547;42.672;23.230;2023-08-07T07:07:48;92985.34;;;17.51;100.00
10988;BME280;5547;42.672;23.230;2023-08-07T07:10:49;92955.13;;;17.32;100.00
10988;BME280;5547;42.672;23.230;2023-08-07T07:13:50;92970.84;;;17.25;100.00
10988;BME280;5547;42.672;23.230;2023-08-07T07:16:51;92982.34;;;17.58;100.00
10988;BME280;5547;42.672;23.230;2023-08-07T07:19:51;92981.03;;;18.02;100.00
10988;BME280;5547;42.672;23.230;2023-08-07T07:22:52;92949.38;;;17.97;100.00
10988;BME280;5547;42.672;23.230;2023-08-07T07:25:52;92983.56;;;18.05;100.00
10988;BME280;5547;42.672;23.230;2023-08-07T07:28:53;92983.25;;;17.89;100.00
10988;BME280;5547;42.672;23.230;2023-08-07T07:31:53;92965.66;;;18.02;100.00
10988;BME280;5547;42.672;23.230;2023-08-07T07:34:55;92970.97;;;18.12;100.00
10988;BME280;5547;42.672;23.230;2023-08-07T07:37:55;92970.13;;;18.20;100.00
10988;BME280;5547;42.672;23.230;2023-08-07T07:40:56;92967.84;;;18.43;100.00
10988;BME280;5547;42.672;23.230;2023-08-07T07:43:56;92976.88;;;18.55;100.00
10988;BME280;5547;42.672;23.230;2023-08-07T07:46:57;92974.28;;;18.06;100.00
10988;BME280;5547;42.672;23.230;2023-08-07T07:50:05;92948.22;;;18.13;100.00
10988;BME280;5547;42.672;23.230;2023-08-07T07:53:07;92985.19;;;18.27;100.00
10988;BME280;5547;42.672;23.230;2023-08-07T07:56:07;92981.16;;;18.46;100.00
10988;BME280;5547;42.672;23.230;2023-08-07T07:59:08;92926.47;;;18.01;100.00
10988;BME280;5547;42.672;23.230;2023-08-07T08:02:08;92935.16;;;18.50;100.00
10988;BME280;5547;42.672;23.230;2023-08-07T08:05:09;92973.66;;;18.95;100.00
10988;BME280;5547;42.672;23.230;2023-08-07T08:08:13;92923.91;;;18.22;100.00
10988;BME280;5547;42.672;23.230;2023-08-07T08:11:13;92945.53;;;18.81;100.00
10988;BME280;5547;42.672;23.230;2023-08-07T08:14:14;92964.59;;;19.28;100.00
10988;BME280;5547;42.672;23.230;2023-08-07T08:17:14;92954.88;;;19.01;100.00
10988;BME280;5547;42.672;23.230;2023-08-07T08:20:14;92949.38;;;19.10;100.00
10988;BME280;5547;42.672;23.230;2023-08-07T08:23:19;92948.38;;;19.43;100.00
10988;BME280;5547;42.672;23.230;2023-08-07T08:26:19;92943.53;;;19.47;100.00
10988;BME280;5547;42.672;23.230;2023-08-07T08:29:20;92958.91;;;19.61;100.00
10988;BME280;5547;42.672;23.230;2023-08-07T08:32:20;92954.94;;;19.92;100.00
10988;BME280;5547;42.672;23.230;2023-08-07T08:35:20;92952.59;;;20.05;100.00
10988;BME280;5547;42.672;23.230;2023-08-07T08:38:21;92946.47;;;20.05;100.00
10988;BME280;5547;42.672;23.230;2023-08-07T08:41:22;92937.38;;;20.02;100.00
10988;BME280;5547;42.672;23.230;2023-08-07T08:44:24;92945.13;;;20.15;100.00
10988;BME280;5547;42.672;23.230;2023-08-07T08:47:26;92952.16;;;20.33;100.00
10988;BME280;5547;42.672;23.230;2023-08-07T08:50:28;92952.41;;;20.09;100.00
10988;BME280;5547;42.672;23.230;2023-08-07T08:53:29;92942.47;;;20.21;100.00
10988;BME280;5547;42.672;23.230;2023-08-07T08:56:31;92922.41;;;20.53;89.67
10988;BME280;5547;42.672;23.230;2023-08-07T08:59:31;92942.91;;;20.40;82.37
10988;BME280;5547;42.672;23.230;2023-08-07T09:02:33;92950.25;;;20.60;82.78
10988;BME280;5547;42.672;23.230;2023-08-07T09:05:35;92964.59;;;20.71;85.67
10988;BME280;5547;42.672;23.230;2023-08-07T09:08:38;92959.94;;;20.72;81.13
10988;BME280;5547;42.672;23.230;2023-08-07T09:11:41;92956.13;;;20.38;83.83
10988;BME280;5547;42.672;23.230;2023-08-07T09:14:44;92956.81;;;19.86;83.54
10988;BME280;5547;42.672;23.230;2023-08-07T09:17:45;92933.66;;;20.00;82.26
10988;BME280;5547;42.672;23.230;2023-08-07T09:20:47;92918.06;;;20.35;80.19
10988;BME280;5547;42.672;23.230;2023-08-07T09:23:47;92927.91;;;20.59;81.31
10988;BME280;5547;42.672;23.230;2023-08-07T09:26:50;92924.06;;;20.71;81.59
10988;BME280;5547;42.672;23.230;2023-08-07T09:29:51;92932.19;;;21.03;76.79
10988;BME280;5547;42.672;23.230;2023-08-07T09:32:51;92947.44;;;20.74;76.33
10988;BME280;5547;42.672;23.230;2023-08-07T09:35:52;92938.25;;;20.92;76.62
10988;BME280;5547;42.672;23.230;2023-08-07T09:38:53;92928.16;;;21.30;80.61
10988;BME280;5547;42.672;23.230;2023-08-07T09:41:53;92935.50;;;21.56;78.23
10988;BME280;5547;42.672;23.230;2023-08-07T09:44:54;92945.88;;;21.69;74.70
10988;BME280;5547;42.672;23.230;2023-08-07T09:51:00;92937.34;;;21.81;71.59
10988;BME280;5547;42.672;23.230;2023-08-07T09:54:02;92944.75;;;21.44;70.40
10988;BME280;5547;42.672;23.230;2023-08-07T09:57:04;92831.31;;;20.86;68.38
10988;BME280;5547;42.672;23.230;2023-08-07T10:00:08;92944.38;;;21.62;71.33
10988;BME280;5547;42.672;23.230;2023-08-07T10:03:13;92902.25;;;21.12;70.58
10988;BME280;5547;42.672;23.230;2023-08-07T10:06:14;92932.28;;;21.52;66.26
10988;BME280;5547;42.672;23.230;2023-08-07T10:09:14;92928.72;;;21.77;68.98
10988;BME280;5547;42.672;23.230;2023-08-07T10:12:16;92929.66;;;22.29;65.78
10988;BME280;5547;42.672;23.230;2023-08-07T10:15:17;92943.34;;;22.08;68.03
10988;BME280;5547;42.672;23.230;2023-08-07T10:18:18;92896.56;;;22.02;67.27
10988;BME280;5547;42.672;23.230;2023-08-07T10:21:19;92926.94;;;22.34;64.77
10988;BME280;5547;42.672;23.230;2023-08-07T10:24:22;92946.38;;;22.21;63.36
10988;BME280;5547;42.672;23.230;2023-08-07T10:27:24;92946.00;;;21.97;66.60
10988;BME280;5547;42.672;23.230;2023-08-07T10:30:26;92952.75;;;22.18;66.79
10988;BME280;5547;42.672;23.230;2023-08-07T10:33:27;92916.09;;;22.34;63.10
10988;BME280;5547;42.672;23.230;2023-08-07T10:36:35;92937.38;;;22.81;62.80
10988;BME280;5547;42.672;23.230;2023-08-07T10:39:36;92925.03;;;22.74;63.83
10988;BME280;5547;42.672;23.230;2023-08-07T10:43:11;92933.66;;;22.61;65.53
10988;BME280;5547;42.672;23.230;2023-08-07T10:46:14;92922.78;;;22.50;66.21
10988;BME280;5547;42.672;23.230;2023-08-07T10:52:32;92923.06;;;22.86;57.47
10988;BME280;5547;42.672;23.230;2023-08-07T10:55:45;92915.69;;;22.70;58.84
10988;BME280;5547;42.672;23.230;2023-08-07T10:58:52;92898.59;;;22.30;59.87
10988;BME280;5547;42.672;23.230;2023-08-07T11:01:54;92920.13;;;22.78;58.05
10988;BME280;5547;42.672;23.230;2023-08-07T11:04:55;92893.00;;;22.90;57.55
10988;BME280;5547;42.672;23.230;2023-08-07T11:07:56;92908.25;;;22.42;59.40
10988;BME280;5547;42.672;23.230;2023-08-07T11:11:04;92907.28;;;22.51;60.60
10988;BME280;5547;42.672;23.230;2023-08-07T11:14:04;92883.88;;;22.42;62.14
10988;BME280;5547;42.672;23.230;2023-08-07T11:17:05;92876.47;;;22.26;61.76
10988;BME280;5547;42.672;23.230;2023-08-07T11:20:06;92883.88;;;22.76;58.82
10988;BME280;5547;42.672;23.230;2023-08-07T11:23:07;92848.41;;;22.74;57.42
10988;BME280;5547;42.672;23.230;2023-08-07T11:26:09;92837.53;;;22.79;61.22
10988;BME280;5547;42.672;23.230;2023-08-07T11:29:09;92858.72;;;23.03;56.78
10988;BME280;5547;42.672;23.230;2023-08-07T11:32:10;92892.75;;;23.21;55.02
10988;BME280;5547;42.672;23.230;2023-08-07T11:35:10;92874.66;;;23.58;53.75
10988;BME280;5547;42.672;23.230;2023-08-07T11:38:11;92896.34;;;23.75;56.92
10988;BME280;5547;42.672;23.230;2023-08-07T11:41:14;92888.44;;;23.77;57.93
10988;BME280;5547;42.672;23.230;2023-08-07T11:44:14;92888.38;;;23.88;56.46
10988;BME280;5547;42.672;23.230;2023-08-07T11:47:15;92869.75;;;24.09;53.25
10988;BME280;5547;42.672;23.230;2023-08-07T11:50:16;92889.50;;;24.09;54.58
10988;BME280;5547;42.672;23.230;2023-08-07T11:53:18;92839.50;;;24.29;51.71
10988;BME280;5547;42.672;23.230;2023-08-07T11:56:19;92853.47;;;24.09;52.24
10988;BME280;5547;42.672;23.230;2023-08-07T11:59:20;92862.88;;;24.02;54.04
10988;BME280;5547;42.672;23.230;2023-08-07T12:02:29;92889.69;;;23.59;53.86
10988;BME280;5547;42.672;23.230;2023-08-07T12:05:38;92878.84;;;23.59;54.19
10988;BME280;5547;42.672;23.230;2023-08-07T12:08:41;92871.09;;;24.32;52.75
10988;BME280;5547;42.672;23.230;2023-08-07T12:11:42;92883.19;;;23.90;54.35
10988;BME280;5547;42.672;23.230;2023-08-07T12:14:42;92875.00;;;24.01;55.39
10988;BME280;5547;42.672;23.230;2023-08-07T12:17:42;92876.41;;;24.14;53.96
10988;BME280;5547;42.672;23.230;2023-08-07T12:20:43;92855.38;;;23.67;54.30
10988;BME280;5547;42.672;23.230;2023-08-07T12:23:43;92845.19;;;23.84;54.50
10988;BME280;5547;42.672;23.230;2023-08-07T12:26:44;92873.25;;;24.04;54.92
10988;BME280;5547;42.672;23.230;2023-08-07T12:29:45;92868.44;;;23.74;55.53
10988;BME280;5547;42.672;23.230;2023-08-07T12:32:45;92874.31;;;23.89;54.54
10988;BME280;5547;42.672;23.230;2023-08-07T12:35:46;92874.56;;;23.86;55.41
10988;BME280;5547;42.672;23.230;2023-08-07T12:38:46;92870.59;;;23.93;56.26
10988;BME280;5547;42.672;23.230;2023-08-07T12:41:47;92892.88;;;23.68;57.37
10988;BME280;5547;42.672;23.230;2023-08-07T12:44:48;92892.84;;;23.80;58.30
10988;BME280;5547;42.672;23.230;2023-08-07T12:47:49;92886.53;;;23.38;58.81
10988;BME280;5547;42.672;23.230;2023-08-07T12:50:49;92883.38;;;23.28;60.72
10988;BME280;5547;42.672;23.230;2023-08-07T12:53:50;92886.72;;;23.57;59.36
10988;BME280;5547;42.672;23.230;2023-08-07T12:56:51;92891.59;;;23.86;57.86
10988;BME280;5547;42.672;23.230;2023-08-07T12:59:52;92885.59;;;24.52;58.64
10988;BME280;5547;42.672;23.230;2023-08-07T13:02:53;92897.91;;;24.59;55.62
10988;BME280;5547;42.672;23.230;2023-08-07T13:05:55;92895.81;;;24.35;56.04
10988;BME280;5547;42.672;23.230;2023-08-07T13:08:55;92904.47;;;23.80;56.44
10988;BME280;5547;42.672;23.230;2023-08-07T13:11:56;92891.47;;;23.51;59.19
10988;BME280;5547;42.672;23.230;2023-08-07T13:14:56;92903.53;;;23.49;59.42
10988;BME280;5547;42.672;23.230;2023-08-07T13:17:57;92904.34;;;23.16;61.41
10988;BME280;5547;42.672;23.230;2023-08-07T13:20:57;92908.53;;;22.78;62.88
10988;BME280;5547;42.672;23.230;2023-08-07T13:23:58;92896.19;;;22.82;62.66
10988;BME280;5547;42.672;23.230;2023-08-07T13:26:58;92915.63;;;23.60;62.95
10988;BME280;5547;42.672;23.230;2023-08-07T13:29:59;92918.41;;;23.03;60.65
10988;BME280;5547;42.672;23.230;2023-08-07T13:33:00;92898.19;;;22.82;61.58
10988;BME280;5547;42.672;23.230;2023-08-07T13:36:00;92882.88;;;22.62;61.24
10988;BME280;5547;42.672;23.230;2023-08-07T13:39:01;92915.66;;;22.53;63.32
10988;BME280;5547;42.672;23.230;2023-08-07T13:42:01;92911.72;;;22.65;62.72
10988;BME280;5547;42.672;23.230;2023-08-07T13:45:02;92920.13;;;22.84;67.59
10988;BME280;5547;42.672;23.230;2023-08-07T13:48:03;92927.00;;;22.57;63.71
10988;BME280;5547;42.672;23.230;2023-08-07T13:51:06;92920.69;;;22.11;65.99
10988;BME280;5547;42.672;23.230;2023-08-07T13:54:08;92936.50;;;22.18;67.95
10988;BME280;5547;42.672;23.230;2023-08-07T13:57:08;92932.41;;;21.86;68.11
10988;BME280;5547;42.672;23.230;2023-08-07T14:00:09;92909.13;;;21.51;66.63
10988;BME280;5547;42.672;23.230;2023-08-07T14:03:11;92930.84;;;21.25;68.26
10988;BME280;5547;42.672;23.230;2023-08-07T14:06:12;92914.56;;;21.13;69.91
10988;BME280;5547;42.672;23.230;2023-08-07T14:09:13;92922.47;;;21.23;69.20
10988;BME280;5547;42.672;23.230;2023-08-07T14:12:14;92928.78;;;21.08;70.41
10988;BME280;5547;42.672;23.230;2023-08-07T14:15:14;92936.28;;;20.93;70.76
10988;BME280;5547;42.672;23.230;2023-08-07T14:18:14;92895.63;;;20.82;71.30
10988;BME280;5547;42.672;23.230;2023-08-07T14:21:16;92949.69;;;21.13;70.02
10988;BME280;5547;42.672;23.230;2023-08-07T14:24:16;92910.34;;;20.49;74.75
10988;BME280;5547;42.672;23.230;2023-08-07T14:27:17;92915.59;;;20.84;73.83
10988;BME280;5547;42.672;23.230;2023-08-07T14:30:17;92943.03;;;20.77;76.86
10988;BME280;5547;42.672;23.230;2023-08-07T14:33:18;92942.44;;;20.41;76.27
10988;BME280;5547;42.672;23.230;2023-08-07T14:36:18;92930.25;;;20.25;78.00
10988;BME280;5547;42.672;23.230;2023-08-07T14:39:18;92956.75;;;20.47;78.40
10988;BME280;5547;42.672;23.230;2023-08-07T14:42:19;92927.19;;;20.38;79.79
10988;BME280;5547;42.672;23.230;2023-08-07T14:45:20;92957.34;;;20.57;78.03
10988;BME280;5547;42.672;23.230;2023-08-07T14:48:21;92954.88;;;20.12;82.09
10988;BME280;5547;42.672;23.230;2023-08-07T14:51:21;92948.03;;;19.91;83.18
10988;BME280;5547;42.672;23.230;2023-08-07T14:54:21;92930.72;;;19.62;85.08
10988;BME280;5547;42.672;23.230;2023-08-07T14:57:23;92950.63;;;19.65;86.12
10988;BME280;5547;42.672;23.230;2023-08-07T15:00:24;92927.88;;;19.51;88.14
10988;BME280;5547;42.672;23.230;2023-08-07T15:03:24;92950.72;;;19.70;88.00
10988;BME280;5547;42.672;23.230;2023-08-07T15:06:25;92951.25;;;19.75;87.21
10988;BME280;5547;42.672;23.230;2023-08-07T15:09:25;92943.13;;;19.69;86.56
10988;BME280;5547;42.672;23.230;2023-08-07T15:12:26;92913.53;;;19.60;85.88
10988;BME280;5547;42.672;23.230;2023-08-07T15:15:26;92948.13;;;19.61;87.13
10988;BME280;5547;42.672;23.230;2023-08-07T15:18:27;92937.25;;;19.35;90.71
10988;BME280;5547;42.672;23.230;2023-08-07T15:21:27;92904.00;;;19.23;94.16
10988;BME280;5547;42.672;23.230;2023-08-07T15:24:27;92949.06;;;19.58;89.71
10988;BME280;5547;42.672;23.230;2023-08-07T15:27:28;92950.03;;;19.40;90.74
10988;BME280;5547;42.672;23.230;2023-08-07T15:30:28;92951.00;;;19.22;97.18
10988;BME280;5547;42.672;23.230;2023-08-07T15:33:30;92942.06;;;18.96;100.00
10988;BME280;5547;42.672;23.230;2023-08-07T15:36:31;92946.97;;;19.12;99.71
10988;BME280;5547;42.672;23.230;2023-08-07T15:39:31;92957.88;;;18.88;100.00
10988;BME280;5547;42.672;23.230;2023-08-07T15:42:31;92962.78;;;18.75;100.00
10988;BME280;5547;42.672;23.230;2023-08-07T15:45:32;92974.56;;;19.07;100.00
10988;BME280;5547;42.672;23.230;2023-08-07T15:48:32;92921.34;;;18.42;100.00
10988;BME280;5547;42.672;23.230;2023-08-07T15:51:33;92848.16;;;17.99;100.00
10988;BME280;5547;42.672;23.230;2023-08-07T15:54:33;92918.19;;;18.44;100.00
10988;BME280;5547;42.672;23.230;2023-08-07T15:57:34;92898.84;;;18.75;100.00
10988;BME280;5547;42.672;23.230;2023-08-07T16:00:34;92950.66;;;19.29;100.00
10988;BME280;5547;42.672;23.230;2023-08-07T16:03:35;92914.78;;;19.08;100.00
10988;BME280;5547;42.672;23.230;2023-08-07T16:06:41;92947.88;;;19.80;100.00
10988;BME280;5547;42.672;23.230;2023-08-07T16:09:41;92957.63;;;19.57;100.00